Time;durP1;ratioP1;P1;durP2;ratioP2;P2;SDS_P1;SDS_P2;PMS_P1;PMS_P2;Temp;Humidity;BMP_temperature;BMP_pressure;BME280_temperature;BME280_humidity;BME280_pressure;Samples;Min_cycle;Max_cycle;Signal;HPM_P1;HPM_P2
2021/09/25 00:02:30;;;;;;;7.78;3.90;;;;;;;13.81;84.93;99026.66;4222094;83;21021;-82
2021/09/25 00:08:32;;;;;;;5.95;3.47;;;;;;;13.85;84.70;99026.66;4225717;83;21087;-83
2021/09/25 00:14:34;;;;;;;10.05;4.08;;;;;;;13.85;84.79;99027.45;4217380;83;21579;-82
2021/09/25 00:20:38;;;;;;;8.83;4.25;;;;;;;13.86;84.78;99028.22;4182844;83;21092;-82
2021/09/25 00:26:40;;;;;;;7.90;4.33;;;;;;;13.84;84.76;99017.61;4177889;82;21072;-82
2021/09/25 00:32:42;;;;;;;10.80;5.80;;;;;;;13.85;85.10;99016.45;4191871;82;21067;-82
2021/09/25 00:38:43;;;;;;;11.57;5.53;;;;;;;13.86;84.73;99013.88;4189355;84;21499;-82
2021/09/25 00:44:44;;;;;;;10.78;5.20;;;;;;;13.87;84.67;99015.47;4163491;84;21088;-82
2021/09/25 00:50:46;;;;;;;6.60;3.77;;;;;;;13.88;84.59;99012.11;4166698;84;21082;-82
2021/09/25 00:56:49;;;;;;;14.93;5.30;;;;;;;13.89;84.27;99017.83;4183096;84;21047;-82
2021/09/25 01:02:51;;;;;;;8.85;3.10;;;;;;;13.92;84.50;99016.42;4188135;82;21049;-82
2021/09/25 01:08:54;;;;;;;5.20;3.25;;;;;;;13.90;84.26;99010.55;4179095;84;21127;-83
2021/09/25 01:14:56;;;;;;;9.10;2.98;;;;;;;13.92;84.21;99016.42;4161494;84;21075;-83
2021/09/25 01:21:07;;;;;;;8.43;2.72;;;;;;;13.87;84.05;99011.34;4226459;81;21052;-82
2021/09/25 01:27:08;;;;;;;8.18;2.83;;;;;;;13.87;83.90;99002.30;4253338;83;21107;-82
2021/09/25 01:33:09;;;;;;;6.50;3.22;;;;;;;13.85;83.73;99007.40;4267682;81;21052;-83
2021/09/25 01:39:11;;;;;;;6.35;3.20;;;;;;;13.86;84.12;99013.88;4265044;82;21055;-82
2021/09/25 01:45:15;;;;;;;10.72;3.15;;;;;;;13.81;84.06;99011.53;4246519;83;21060;-82
2021/09/25 01:51:16;;;;;;;6.22;3.20;;;;;;;13.79;84.53;99005.66;4259356;83;21090;-83
2021/09/25 01:57:18;;;;;;;7.87;3.65;;;;;;;13.77;84.78;99005.84;4247169;82;21099;-83
2021/09/25 02:03:20;;;;;;;7.53;2.75;;;;;;;13.73;85.01;99004.46;4245375;83;21044;-82
2021/09/25 02:09:21;;;;;;;7.17;3.10;;;;;;;13.71;85.66;99006.84;4240906;82;21098;-83
2021/09/25 02:15:22;;;;;;;7.62;3.33;;;;;;;13.66;85.61;99011.36;4263575;81;21060;-82
2021/09/25 02:21:23;;;;;;;6.47;3.55;;;;;;;13.64;85.81;99002.71;4239272;81;21239;-82
2021/09/25 02:27:24;;;;;;;5.10;3.35;;;;;;;13.61;85.82;99015.88;4226420;83;21494;-82
2021/09/25 02:33:26;;;;;;;9.55;3.85;;;;;;;13.56;85.95;99010.00;4236407;83;21051;-82
2021/09/25 02:39:29;;;;;;;4.35;3.05;;;;;;;13.55;86.14;99008.41;4225310;83;21569;-83
2021/09/25 02:45:31;;;;;;;10.05;2.95;;;;;;;13.56;86.30;99014.12;4222475;83;20997;-82
2021/09/25 02:51:32;;;;;;;5.15;3.15;;;;;;;13.54;86.37;99018.65;4232757;83;21038;-82
2021/09/25 02:57:34;;;;;;;5.28;3.10;;;;;;;13.50;86.38;99017.08;4232520;82;21099;-82
2021/09/25 03:03:35;;;;;;;6.87;3.47;;;;;;;13.44;86.32;99019.42;4222741;83;21071;-83
2021/09/25 03:09:36;;;;;;;5.12;3.00;;;;;;;13.46;86.44;99028.66;4225398;83;21078;-82
2021/09/25 03:15:38;;;;;;;5.67;3.60;;;;;;;13.41;86.55;99014.71;4233546;82;21075;-82
2021/09/25 03:21:39;;;;;;;5.47;3.72;;;;;;;13.40;86.70;99015.11;4166310;83;21090;-82
2021/09/25 03:27:42;;;;;;;7.90;4.10;;;;;;;13.39;86.82;99010.80;4178011;82;21068;-82
2021/09/25 03:33:43;;;;;;;6.35;3.47;;;;;;;13.38;87.01;99024.33;4142070;83;21530;-82
2021/09/25 03:39:44;;;;;;;6.47;4.08;;;;;;;13.37;87.36;99022.19;4149277;84;21077;-82
2021/09/25 03:45:46;;;;;;;8.33;3.67;;;;;;;13.33;87.43;99032.95;4170099;84;21026;-82
2021/09/25 03:51:47;;;;;;;6.55;3.58;;;;;;;13.30;87.57;99023.55;4169320;84;21022;-82
2021/09/25 03:57:48;;;;;;;6.58;3.75;;;;;;;13.33;87.89;99026.09;4160776;84;21062;-82
2021/09/25 04:03:49;;;;;;;5.15;3.37;;;;;;;13.31;87.58;99030.61;4181316;84;21037;-82
2021/09/25 04:09:50;;;;;;;7.83;3.30;;;;;;;13.34;87.82;99025.70;4156660;84;21088;-82
2021/09/25 04:15:51;;;;;;;5.35;3.62;;;;;;;13.35;87.91;99038.86;4189843;84;21526;-82
2021/09/25 04:21:53;;;;;;;9.83;3.75;;;;;;;13.31;87.91;99041.60;4164926;82;21574;-82
2021/09/25 04:27:54;;;;;;;6.12;4.22;;;;;;;13.31;87.90;99047.09;4177119;84;21054;-83
2021/09/25 04:33:56;;;;;;;6.42;3.72;;;;;;;13.30;87.94;99052.41;4161406;82;21560;-83
2021/09/25 04:39:58;;;;;;;8.53;4.58;;;;;;;13.30;88.04;99061.23;4156265;84;21582;-83
2021/09/25 04:45:59;;;;;;;6.22;3.92;;;;;;;13.29;88.16;99059.09;4140631;83;21076;-82
2021/09/25 04:52:00;;;;;;;6.83;4.05;;;;;;;13.33;88.25;99061.83;4145579;83;21101;-82
2021/09/25 04:58:03;;;;;;;7.40;4.53;;;;;;;13.31;88.56;99064.20;4155036;84;21053;-82
2021/09/25 05:04:07;;;;;;;7.95;4.22;;;;;;;13.28;88.48;99065.75;4151595;83;21494;-82
2021/09/25 05:10:10;;;;;;;6.85;3.98;;;;;;;13.27;88.70;99067.52;4157262;84;21066;-82
2021/09/25 05:16:11;;;;;;;6.58;4.80;;;;;;;13.27;88.80;99079.31;4160171;84;21549;-82
2021/09/25 05:22:12;;;;;;;8.43;4.55;;;;;;;13.28;89.08;99082.25;4209394;82;21096;-82
2021/09/25 05:28:13;;;;;;;7.25;4.40;;;;;;;13.29;89.07;99087.97;4218153;82;21072;-82
2021/09/25 05:34:15;;;;;;;9.83;5.17;;;;;;;13.29;88.98;99085.22;4222810;83;21059;-82
2021/09/25 05:40:16;;;;;;;10.78;5.42;;;;;;;13.29;89.06;99092.09;4235326;83;21087;-82
2021/09/25 05:46:18;;;;;;;7.37;4.92;;;;;;;13.33;89.43;99092.87;4240174;83;21048;-83
2021/09/25 05:52:20;;;;;;;9.78;5.60;;;;;;;13.37;89.48;99097.00;4238986;81;21066;-82
2021/09/25 05:58:21;;;;;;;7.60;5.42;;;;;;;13.36;89.34;99085.81;4218608;83;21052;-83
2021/09/25 06:04:23;;;;;;;10.03;5.80;;;;;;;13.41;89.53;99084.03;4226002;83;21095;-82
2021/09/25 06:10:25;;;;;;;10.20;5.37;;;;;;;13.49;89.66;99086.41;4230397;83;21123;-82
2021/09/25 06:16:26;;;;;;;11.25;5.45;;;;;;;13.51;89.80;99090.14;4225313;81;21068;-82
2021/09/25 06:22:29;;;;;;;10.82;5.62;;;;;;;13.54;89.96;99096.23;4232403;83;21160;-82
2021/09/25 06:28:30;;;;;;;13.70;6.60;;;;;;;13.56;90.29;99107.03;4230448;83;21568;-83
2021/09/25 06:34:32;;;;;;;9.90;6.78;;;;;;;13.59;90.12;99118.63;4232672;81;20996;-83
2021/09/25 06:40:34;;;;;;;11.68;6.00;;;;;;;13.59;90.30;99121.38;4230598;82;21086;-82
2021/09/25 06:46:35;;;;;;;12.47;6.42;;;;;;;13.66;90.61;99122.77;4238473;81;21334;-82
2021/09/25 06:52:38;;;;;;;9.35;5.15;;;;;;;13.79;90.75;99117.09;4229669;83;21037;-82
2021/09/25 06:58:39;;;;;;;8.93;5.60;;;;;;;13.98;90.61;99115.90;4248538;83;21028;-82
2021/09/25 07:04:40;;;;;;;9.15;4.92;;;;;;;14.16;90.67;99124.91;4237227;81;21056;-82
2021/09/25 07:10:42;;;;;;;7.83;5.50;;;;;;;14.29;90.77;99124.73;4236563;83;21052;-83
2021/09/25 07:16:45;;;;;;;8.30;4.58;;;;;;;14.42;90.56;99133.37;4233655;83;21660;-82
2021/09/25 07:22:51;;;;;;;7.83;4.85;;;;;;;14.56;90.47;99145.73;4252959;81;21066;-83
2021/09/25 07:28:51;;;;;;;11.90;4.80;;;;;;;14.68;90.55;99150.22;4241295;83;21044;-83
2021/09/25 07:34:53;;;;;;;7.20;4.53;;;;;;;14.81;90.53;99151.38;4246374;83;21535;-83
2021/09/25 07:40:56;;;;;;;7.10;4.67;;;;;;;14.92;90.59;99154.08;4246388;81;21107;-83
2021/09/25 07:46:57;;;;;;;10.40;4.33;;;;;;;15.01;90.51;99158.56;4243400;83;21082;-82
2021/09/25 07:52:59;;;;;;;6.85;4.70;;;;;;;15.12;90.42;99155.97;4242720;83;21556;-83
2021/09/25 07:59:00;;;;;;;6.70;3.85;;;;;;;15.24;90.50;99159.64;4245822;81;22173;-83
2021/09/25 08:05:03;;;;;;;6.42;3.95;;;;;;;15.40;90.39;99157.81;4252031;82;21111;-83
2021/09/25 08:11:05;;;;;;;7.80;4.22;;;;;;;15.55;90.40;99162.84;4249631;83;21182;-83
2021/09/25 08:17:07;;;;;;;5.45;4.10;;;;;;;15.72;90.21;99167.28;4257130;82;21044;-83
2021/09/25 08:23:08;;;;;;;6.35;4.72;;;;;;;15.89;89.95;99178.20;4248252;83;21696;-83
2021/09/25 08:29:09;;;;;;;6.45;4.22;;;;;;;16.07;89.95;99176.69;4247440;82;21115;-82
2021/09/25 08:35:11;;;;;;;12.23;5.95;;;;;;;16.23;89.80;99183.84;4244906;83;21072;-83
2021/09/25 08:41:13;;;;;;;6.45;4.70;;;;;;;16.41;89.72;99197.67;4263285;81;21570;-83
2021/09/25 08:47:17;;;;;;;7.53;4.95;;;;;;;16.56;89.35;99195.61;4251119;82;21511;-83
2021/09/25 08:53:21;;;;;;;6.35;4.53;;;;;;;16.70;89.03;99193.49;4253980;81;21071;-83
2021/09/25 08:59:22;;;;;;;7.03;4.75;;;;;;;16.88;88.99;99194.08;4243132;83;21064;-83
2021/09/25 09:05:30;;;;;;;6.12;5.00;;;;;;;17.06;88.65;99195.27;4250877;83;21051;-83
2021/09/25 09:11:32;;;;;;;9.93;5.12;;;;;;;17.26;88.23;99193.43;4240013;82;21096;-83
2021/09/25 09:17:34;;;;;;;8.33;6.60;;;;;;;17.41;87.78;99195.42;4250599;81;21078;-82
2021/09/25 09:23:55;;;;;;;8.88;6.70;;;;;;;17.51;87.41;99191.77;4248029;81;21602;-83
2021/09/25 09:30:14;;;;;;;7.15;5.80;;;;;;;17.60;85.58;99186.50;4191234;83;21061;-83
2021/09/25 09:36:38;;;;;;;12.58;7.60;;;;;;;17.63;86.07;99193.37;4266437;82;21555;-83
2021/09/25 09:42:50;;;;;;;14.63;7.42;;;;;;;17.73;86.00;99196.58;4248114;82;21015;-83
2021/09/25 09:48:55;;;;;;;10.23;6.90;;;;;;;17.80;85.99;99193.72;4252658;83;21071;-82
2021/09/25 09:54:57;;;;;;;10.25;6.95;;;;;;;17.87;85.88;99195.61;4255163;83;21028;-83
2021/09/25 10:01:00;;;;;;;7.55;5.90;;;;;;;17.97;85.53;99184.95;4256025;81;21573;-82
2021/09/25 10:07:02;;;;;;;9.08;5.90;;;;;;;18.05;85.31;99183.05;4241794;83;21049;-83
2021/09/25 10:13:03;;;;;;;8.60;5.95;;;;;;;18.15;85.01;99182.08;4251544;83;21055;-83
2021/09/25 10:19:06;;;;;;;8.45;5.55;;;;;;;18.23;84.81;99179.38;4258744;83;21016;-83
2021/09/25 10:25:11;;;;;;;7.95;5.42;;;;;;;18.33;84.70;99185.35;4233572;82;22254;-84
2021/09/25 10:31:22;;;;;;;7.95;6.00;;;;;;;18.37;84.27;99168.05;4230117;82;21609;-83
2021/09/25 10:37:25;;;;;;;11.60;6.47;;;;;;;18.45;83.87;99181.20;4240858;81;21072;-83
2021/09/25 10:43:32;;;;;;;11.70;7.03;;;;;;;18.57;83.88;99182.77;4228040;82;21050;-84
2021/09/25 10:49:45;;;;;;;12.05;6.67;;;;;;;18.68;83.35;99179.81;4229309;82;21048;-83
2021/09/25 10:55:54;;;;;;;14.25;8.38;;;;;;;18.79;83.15;99177.63;4235567;81;21013;-85
2021/09/25 11:01:55;;;;;;;10.00;7.00;;;;;;;18.94;82.86;99188.62;4233817;83;21090;-84
2021/09/25 11:07:59;;;;;;;8.58;6.30;;;;;;;19.12;82.94;99176.55;4222026;82;21028;-84
2021/09/25 11:14:08;;;;;;;12.95;7.08;;;;;;;19.25;82.39;99177.48;4227264;82;21059;-83
2021/09/25 11:20:10;;;;;;;11.97;7.37;;;;;;;19.37;82.10;99174.70;4228587;82;21606;-84
2021/09/25 11:26:13;;;;;;;8.98;7.55;;;;;;;19.46;81.86;99167.95;4176938;82;21084;-83
2021/09/25 11:32:16;;;;;;;11.10;7.15;;;;;;;19.58;81.48;99165.89;4188000;84;21048;-83
2021/09/25 11:38:18;;;;;;;10.23;7.12;;;;;;;19.66;81.22;99167.30;4173435;84;21086;-83
2021/09/25 11:44:19;;;;;;;8.35;6.62;;;;;;;19.79;80.65;99160.66;4176495;84;21000;-83
2021/09/25 11:50:27;;;;;;;8.40;6.90;;;;;;;19.75;80.45;99163.31;4162253;84;21072;-84
2021/09/25 11:56:34;;;;;;;8.88;6.58;;;;;;;19.70;80.54;99156.28;4157548;84;21104;-83
2021/09/25 12:02:42;;;;;;;12.55;7.03;;;;;;;19.65;80.46;99154.64;4170446;83;21593;-83
2021/09/25 12:08:50;;;;;;;15.68;7.95;;;;;;;19.68;80.27;99157.34;4145555;84;21110;-83
2021/09/25 12:14:51;;;;;;;11.25;6.20;;;;;;;19.76;80.16;99159.34;4178938;82;21102;-83
2021/09/25 12:21:00;;;;;;;10.20;5.33;;;;;;;19.72;80.34;99160.80;4190129;82;21059;-83
2021/09/25 12:27:01;;;;;;;7.55;4.78;;;;;;;19.73;79.58;99156.80;4225789;83;21039;-83
2021/09/25 12:33:03;;;;;;;6.28;4.53;;;;;;;19.70;79.29;99166.62;4229280;83;21064;-84
2021/09/25 12:39:09;;;;;;;8.60;4.35;;;;;;;19.81;78.92;99158.20;4227455;83;21074;-83
2021/09/25 12:45:16;;;;;;;7.42;4.65;;;;;;;19.90;78.33;99158.41;4224513;83;21068;-84
2021/09/25 12:51:26;;;;;;;7.58;4.58;;;;;;;19.92;78.32;99150.41;4229151;83;21035;-84
2021/09/25 12:57:28;;;;;;;7.50;4.87;;;;;;;19.83;78.46;99151.62;4224356;83;21016;-84
2021/09/25 13:03:31;;;;;;;6.62;5.40;;;;;;;19.74;78.54;99151.44;4224369;82;21048;-84
2021/09/25 13:09:48;;;;;;;10.98;5.37;;;;;;;19.67;78.33;99148.05;4191445;83;21096;-84
2021/09/25 13:15:49;;;;;;;7.28;5.35;;;;;;;19.61;78.33;99157.48;4221643;83;21365;-84
2021/09/25 13:21:53;;;;;;;9.75;5.92;;;;;;;19.54;78.31;99161.03;4236846;82;21095;-85
2021/09/25 13:27:57;;;;;;;9.28;5.45;;;;;;;19.49;78.39;99164.31;4240224;81;21044;-84
2021/09/25 13:33:58;;;;;;;8.30;5.05;;;;;;;19.40;78.46;99157.97;4222466;81;21574;-84
2021/09/25 13:40:04;;;;;;;7.30;5.30;;;;;;;19.35;78.56;99165.41;4225142;83;21052;-84
2021/09/25 13:46:06;;;;;;;11.97;6.15;;;;;;;19.27;78.57;99173.67;4225262;83;21016;-84
2021/09/25 13:52:10;;;;;;;17.12;7.10;;;;;;;19.21;78.76;99170.44;4240386;82;21043;-84
2021/09/25 13:58:11;;;;;;;17.02;6.92;;;;;;;19.19;79.03;99169.48;4229352;83;21071;-84
2021/09/25 14:04:13;;;;;;;11.18;6.25;;;;;;;19.21;79.15;99166.28;4242922;83;21004;-84
2021/09/25 14:10:16;;;;;;;11.78;6.50;;;;;;;19.18;79.39;99169.91;4237821;83;21095;-84
2021/09/25 14:16:18;;;;;;;7.45;5.70;;;;;;;19.17;79.62;99175.30;4258412;83;21465;-83
2021/09/25 14:22:19;;;;;;;7.87;5.08;;;;;;;19.12;79.38;99174.40;4231615;82;21059;-84
2021/09/25 14:28:20;;;;;;;6.40;4.85;;;;;;;19.09;79.17;99180.80;4222102;83;21016;-84
2021/09/25 14:34:28;;;;;;;7.95;5.22;;;;;;;19.05;79.03;99178.09;4219705;83;21025;-84
2021/09/25 14:40:26;;;;;;;6.78;4.72;;;;;;;19.04;78.72;99178.52;4227215;82;21019;-83
2021/09/25 14:46:29;;;;;;;10.32;5.10;;;;;;;19.03;78.66;99183.28;4222193;83;21070;-83
2021/09/25 14:52:30;;;;;;;17.92;6.78;;;;;;;19.01;78.76;99180.77;4230418;83;21055;-84
2021/09/25 14:58:32;;;;;;;7.40;4.83;;;;;;;18.98;78.59;99180.23;4227352;81;21072;-84
2021/09/25 15:04:36;;;;;;;7.47;4.70;;;;;;;18.94;78.67;99189.21;4230471;82;21505;-84
2021/09/25 15:10:37;;;;;;;7.47;5.58;;;;;;;18.87;78.69;99192.14;4232143;83;21604;-84
2021/09/25 15:16:39;;;;;;;8.90;5.28;;;;;;;18.84;78.65;99203.45;4226418;83;21084;-84
2021/09/25 15:22:40;;;;;;;6.75;4.50;;;;;;;18.77;78.59;99196.67;4197486;83;21148;-83
2021/09/25 15:28:42;;;;;;;8.25;5.53;;;;;;;18.70;78.81;99200.95;4167092;82;21104;-83
2021/09/25 15:34:44;;;;;;;9.20;5.33;;;;;;;;;;4167325;84;21092;-83
2021/09/25 15:40:46;;;;;;;10.38;5.60;;;;;;;18.56;79.26;99213.68;4161745;84;21020;-83
2021/09/25 15:46:51;;;;;;;9.40;7.08;;;;;;;18.46;79.61;99217.44;4172027;84;21022;-83
2021/09/25 15:52:52;;;;;;;11.70;7.05;;;;;;;18.40;79.88;99219.89;4166877;84;21041;-83
2021/09/25 15:58:53;;;;;;;12.33;8.53;;;;;;;18.37;80.26;99226.25;4168053;84;21564;-83
2021/09/25 16:04:55;;;;;;;14.75;8.68;;;;;;;18.32;80.47;99222.56;4151765;84;22022;-83
2021/09/25 16:10:57;;;;;;;12.43;9.20;;;;;;;18.22;80.52;99219.97;4196047;84;21074;-84
2021/09/25 16:16:58;;;;;;;13.15;9.55;;;;;;;18.11;80.67;99225.69;4169251;84;21432;-84
2021/09/25 16:23:01;;;;;;;15.78;11.30;;;;;;;18.01;81.06;99221.09;4170784;83;21111;-84
2021/09/25 16:29:04;;;;;;;20.05;13.62;;;;;;;17.89;81.13;99238.28;4179083;82;21050;-84
2021/09/25 16:35:10;;;;;;;22.15;14.20;;;;;;;17.75;81.52;99234.33;4165046;84;21021;-84
2021/09/25 16:41:11;;;;;;;23.85;15.45;;;;;;;17.71;82.09;99240.50;4175733;82;21030;-84
2021/09/25 16:47:14;;;;;;;20.50;14.23;;;;;;;17.70;82.51;99241.72;4171728;82;21425;-84
2021/09/25 16:53:15;;;;;;;22.13;15.55;;;;;;;17.61;82.87;99253.91;4186752;82;21079;-84
2021/09/25 16:59:16;;;;;;;20.27;14.98;;;;;;;17.52;83.08;99266.67;4177811;84;21214;-84
2021/09/25 17:05:18;;;;;;;19.17;13.50;;;;;;;17.50;83.36;99282.91;4178710;84;21077;-84
2021/09/25 17:11:19;;;;;;;20.97;15.83;;;;;;;17.41;83.50;99286.75;4166419;84;21193;-83
2021/09/25 17:17:21;;;;;;;23.80;16.93;;;;;;;17.33;83.99;99287.44;4162234;84;21384;-83
2021/09/25 17:23:22;;;;;;;30.43;18.17;;;;;;;17.29;84.40;99295.59;4183972;82;21072;-84
2021/09/25 17:29:24;;;;;;;45.75;23.00;;;;;;;17.22;84.57;99300.59;4224407;82;21052;-84
2021/09/25 17:35:25;;;;;;;55.78;27.50;;;;;;;17.11;85.03;99298.54;4230058;82;21061;-83
2021/09/25 17:41:27;;;;;;;41.58;24.75;;;;;;;17.10;85.57;99309.42;4231086;83;21067;-84
2021/09/25 17:47:30;;;;;;;76.62;36.23;;;;;;;17.06;85.59;99302.54;4223231;82;21084;-83
2021/09/25 17:53:32;;;;;;;71.35;36.17;;;;;;;17.03;85.90;99310.86;4238023;83;21115;-84
2021/09/25 17:59:33;;;;;;;61.28;30.62;;;;;;;16.99;85.83;99305.36;4219794;83;21059;-83
2021/09/25 18:05:36;;;;;;;41.68;23.67;;;;;;;17.00;86.16;99311.09;4232818;83;21388;-84
2021/09/25 18:11:38;;;;;;;44.73;29.90;;;;;;;16.99;86.42;99312.89;4237678;82;21056;-84
2021/09/25 18:17:39;;;;;;;40.67;25.52;;;;;;;16.98;86.69;99325.92;4230043;82;21087;-83
2021/09/25 18:23:42;;;;;;;30.23;20.10;;;;;;;16.92;86.45;99324.80;4208158;82;21088;-84
2021/09/25 18:29:48;;;;;;;33.48;20.68;;;;;;;16.88;86.91;99326.80;4143939;84;21560;-84
2021/09/25 18:35:49;;;;;;;24.57;15.18;;;;;;;16.88;87.15;99326.80;4187627;82;21720;-84
2021/09/25 18:41:51;;;;;;;21.02;13.60;;;;;;;16.85;86.94;99334.52;4157318;82;21066;-83
2021/09/25 18:47:54;;;;;;;19.92;13.78;;;;;;;16.85;86.87;99346.20;4162213;82;21005;-84
2021/09/25 18:53:56;;;;;;;19.98;14.05;;;;;;;16.85;86.99;99351.11;4156882;84;21081;-84
2021/09/25 18:59:57;;;;;;;21.23;12.68;;;;;;;16.81;87.34;99346.23;4164673;84;21034;-83
2021/09/25 19:06:00;;;;;;;18.92;11.35;;;;;;;16.72;87.34;99343.15;4156920;83;21629;-84
2021/09/25 19:12:02;;;;;;;19.73;12.88;;;;;;;16.67;87.56;99343.58;4160765;83;21038;-84
2021/09/25 19:18:04;;;;;;;20.12;12.68;;;;;;;16.67;87.67;99346.92;4165868;83;21557;-84
2021/09/25 19:24:07;;;;;;;19.35;13.58;;;;;;;16.65;88.02;99359.77;4196374;83;21032;-83
2021/09/25 19:30:10;;;;;;;22.22;13.68;;;;;;;16.63;88.31;99358.00;4213957;83;22308;-83
2021/09/25 19:36:12;;;;;;;26.37;14.47;;;;;;;16.61;88.36;99360.41;4224516;82;21060;-84
2021/09/25 19:42:13;;;;;;;18.95;14.18;;;;;;;16.62;88.62;99364.73;4237242;81;21011;-83
2021/09/25 19:48:16;;;;;;;22.70;14.45;;;;;;;16.63;88.67;99369.67;4222175;83;21115;-83
2021/09/25 19:54:18;;;;;;;23.05;16.37;;;;;;;16.54;88.70;99367.94;4224233;82;21084;-83
2021/09/25 20:00:20;;;;;;;21.52;14.70;;;;;;;16.48;89.19;99375.09;4231408;83;21107;-82
2021/09/25 20:06:22;;;;;;;20.52;14.83;;;;;;;16.52;89.08;99373.88;4221863;83;21060;-84
2021/09/25 20:12:24;;;;;;;24.92;16.42;;;;;;;16.51;89.24;99378.42;4225275;83;21144;-83
2021/09/25 20:18:26;;;;;;;26.48;17.57;;;;;;;16.47;89.23;99381.23;4233430;81;21159;-83
2021/09/25 20:24:28;;;;;;;24.98;17.35;;;;;;;16.43;89.44;99383.19;4219477;82;22188;-83
2021/09/25 20:30:31;;;;;;;21.45;15.40;;;;;;;16.42;89.47;99394.64;4225003;83;21477;-83
2021/09/25 20:36:32;;;;;;;21.00;15.70;;;;;;;16.36;90.02;99391.53;4229143;81;22298;-83
2021/09/25 20:42:33;;;;;;;22.35;16.90;;;;;;;16.37;90.22;99395.86;4228411;83;21544;-83
2021/09/25 20:48:35;;;;;;;31.40;22.17;;;;;;;16.35;90.44;99399.61;4229839;83;21689;-83
2021/09/25 20:54:36;;;;;;;28.45;20.48;;;;;;;16.27;90.38;99395.92;4228184;83;21076;-83
2021/09/25 21:00:40;;;;;;;27.98;20.72;;;;;;;16.21;90.70;99396.92;4225304;83;21107;-83
2021/09/25 21:06:41;;;;;;;37.65;27.90;;;;;;;16.16;91.12;99398.72;4228418;83;21048;-83
2021/09/25 21:12:44;;;;;;;37.23;25.27;;;;;;;16.15;91.38;99397.16;4240166;83;21001;-83
2021/09/25 21:18:45;;;;;;;32.40;22.35;;;;;;;16.13;91.64;99404.28;4226523;81;21068;-83
2021/09/25 21:24:47;;;;;;;30.92;23.00;;;;;;;16.11;91.88;99417.70;4169564;83;21080;-83
2021/09/25 21:30:53;;;;;;;33.60;24.50;;;;;;;16.12;91.98;99412.36;4081208;86;21049;-83
2021/09/25 21:36:54;;;;;;;31.57;21.97;;;;;;;16.12;92.17;99416.50;4081414;85;21557;-83
2021/09/25 21:42:56;;;;;;;34.60;23.85;;;;;;;16.08;92.42;99417.13;4079173;85;21069;-83
2021/09/25 21:48:57;;;;;;;32.17;21.55;;;;;;;16.04;92.68;99416.33;4076743;86;21588;-83
2021/09/25 21:54:59;;;;;;;37.00;24.87;;;;;;;16.01;92.77;99405.51;4068261;86;21109;-83
2021/09/25 22:01:15;;;;;;;31.37;22.02;;;;;;;15.90;92.98;99402.00;4083050;86;21061;-83
2021/09/25 22:07:16;;;;;;;36.58;23.87;;;;;;;15.90;93.21;99412.25;4073716;86;21094;-82
2021/09/25 22:13:17;;;;;;;35.17;25.30;;;;;;;15.84;93.36;99411.09;4075269;85;22356;-83
2021/09/25 22:19:20;;;;;;;37.55;23.38;;;;;;;15.75;93.46;99407.39;4075530;85;21149;-83
2021/09/25 22:25:23;;;;;;;38.58;24.63;;;;;;;15.74;93.98;99411.31;4117214;83;21631;-82
2021/09/25 22:31:25;;;;;;;35.80;27.00;;;;;;;15.70;94.11;99407.79;4163173;83;21519;-83
2021/09/25 22:37:34;;;;;;;38.25;25.35;;;;;;;15.72;94.54;99404.63;4168302;82;21029;-83
2021/09/25 22:43:36;;;;;;;38.30;27.52;;;;;;;15.74;94.63;99400.89;4166486;84;21576;-83
2021/09/25 22:49:39;;;;;;;39.15;27.55;;;;;;;15.78;94.81;99403.03;4172567;82;21108;-83
2021/09/25 22:55:40;;;;;;;39.23;27.10;;;;;;;15.82;95.00;99401.06;4140513;84;21052;-83
2021/09/25 23:01:41;;;;;;;38.98;28.17;;;;;;;15.75;94.71;99403.83;4160471;84;21085;-83
2021/09/25 23:07:43;;;;;;;37.85;26.85;;;;;;;15.59;94.91;99405.07;4165118;82;21518;-83
2021/09/25 23:13:44;;;;;;;38.55;27.20;;;;;;;15.56;95.51;99405.07;4180872;82;21049;-83
2021/09/25 23:19:45;;;;;;;39.23;25.23;;;;;;;15.52;95.54;99406.45;4173219;83;21164;-83
2021/09/25 23:25:46;;;;;;;35.48;25.82;;;;;;;15.47;95.58;99403.33;4149299;84;21072;-82
2021/09/25 23:31:49;;;;;;;34.43;24.65;;;;;;;15.44;96.05;99409.64;4161655;84;21100;-83
2021/09/25 23:37:50;;;;;;;37.20;26.20;;;;;;;15.45;96.17;99416.14;4185993;82;21019;-83
2021/09/25 23:43:51;;;;;;;44.58;29.30;;;;;;;15.46;96.38;99409.42;4173702;82;21107;-83
2021/09/25 23:49:53;;;;;;;38.28;26.73;;;;;;;15.44;96.55;99410.41;4188317;84;21076;-83
2021/09/25 23:55:54;;;;;;;35.40;25.00;;;;;;;15.48;96.62;99410.41;4172628;84;21043;-82
